Time;durP1;ratioP1;P1;durP2;ratioP2;P2;SDS_P1;SDS_P2;PMS_P1;PMS_P2;Temp;Humidity;BMP_temperature;BMP_pressure;BME280_temperature;BME280_humidity;BME280_pressure;Samples;Min_cycle;Max_cycle;Signal;HPM_P1;HPM_P2
2021/08/06 00:00:20;;;;;;;37.75;12.60;;;;;;;29.39;40.70;98520.94;5113293;28;20241;-68
2021/08/06 00:02:45;;;;;;;51.25;14.93;;;;;;;29.56;40.29;98522.94;5119015;28;20441;-69
2021/08/06 00:05:11;;;;;;;38.47;13.50;;;;;;;29.57;40.64;98526.47;5113220;28;20222;-69
2021/08/06 00:07:36;;;;;;;23.05;7.82;;;;;;;29.41;40.49;98534.25;5105833;28;20060;-69
2021/08/06 00:10:03;;;;;;;26.90;8.32;;;;;;;29.40;40.87;98530.72;5117816;28;20063;-69
2021/08/06 00:12:28;;;;;;;27.95;7.72;;;;;;;29.28;40.96;98526.97;5115014;28;20103;-70
2021/08/06 00:14:53;;;;;;;23.17;7.53;;;;;;;29.37;40.67;98509.53;5111666;28;20225;-69
2021/08/06 00:17:19;;;;;;;27.88;7.60;;;;;;;29.71;39.99;98521.69;5117120;28;20052;-68
2021/08/06 00:19:45;;;;;;;21.98;7.50;;;;;;;29.48;40.34;98521.78;5118396;28;20039;-68
2021/08/06 00:22:10;;;;;;;36.15;9.25;;;;;;;29.35;41.04;98519.16;5114700;28;20030;-68
2021/08/06 00:24:36;;;;;;;32.40;7.22;;;;;;;29.24;41.26;98524.06;5110156;28;20039;-69
2021/08/06 00:27:02;;;;;;;27.27;7.63;;;;;;;29.14;42.58;98532.53;5108575;28;20328;-68
2021/08/06 00:29:27;;;;;;;24.70;7.65;;;;;;;28.73;42.50;98528.06;5111213;28;20019;-69
2021/08/06 00:31:53;;;;;;;32.50;8.45;;;;;;;28.62;43.51;98532.16;5119846;28;20043;-69
2021/08/06 00:34:18;;;;;;;29.25;8.00;;;;;;;28.96;43.54;98528.88;5105958;28;20027;-68
2021/08/06 00:36:43;;;;;;;27.80;9.15;;;;;;;28.90;42.52;98530.13;5107310;28;20044;-68
2021/08/06 00:39:09;;;;;;;31.45;9.57;;;;;;;28.95;42.85;98529.19;5110658;28;20047;-69
2021/08/06 00:41:34;;;;;;;34.33;9.35;;;;;;;29.09;42.08;98530.72;5117042;27;20034;-69
2021/08/06 00:44:00;;;;;;;31.10;8.73;;;;;;;29.36;42.12;98516.09;5117410;27;20035;-69
2021/08/06 00:46:25;;;;;;;33.08;9.45;;;;;;;29.19;42.67;98513.31;5122573;27;20043;-69
2021/08/06 00:48:52;;;;;;;27.23;8.23;;;;;;;29.03;42.56;98521.06;5118493;27;20033;-69
2021/08/06 00:51:17;;;;;;;30.98;9.18;;;;;;;29.07;42.54;98521.22;5119496;27;20035;-69
2021/08/06 00:53:43;;;;;;;30.17;9.05;;;;;;;29.11;42.90;98511.31;5116529;27;20039;-69
2021/08/06 00:56:09;;;;;;;36.05;9.73;;;;;;;29.21;42.55;98509.16;5117283;27;20077;-68
2021/08/06 00:58:37;;;;;;;28.08;11.02;;;;;;;29.07;42.56;98502.97;5117766;27;20036;-68
2021/08/06 01:01:03;;;;;;;27.80;10.27;;;;;;;29.08;42.56;98518.19;5115469;27;20031;-69
2021/08/06 01:03:42;;;;;;;35.50;10.23;;;;;;;29.08;43.09;98523.66;5126974;27;20040;-69
2021/08/06 01:06:58;;;;;;;28.48;10.70;;;;;;;29.00;43.51;98537.22;5108228;28;20032;-68
2021/08/06 01:09:52;;;;;;;30.02;9.63;;;;;;;29.11;43.20;98541.28;5073018;28;20088;-68
2021/08/06 01:12:27;;;;;;;38.30;10.70;;;;;;;29.26;43.35;98534.66;5109078;27;20055;-69
2021/08/06 01:14:58;;;;;;;27.05;9.50;;;;;;;29.18;43.20;98530.78;5112643;27;20325;-68
2021/08/06 01:17:25;;;;;;;27.13;8.55;;;;;;;29.13;43.26;98525.44;5117818;27;20043;-70
2021/08/06 01:20:05;;;;;;;35.08;9.65;;;;;;;29.06;43.59;98514.19;5115483;27;20027;-69
2021/08/06 01:22:39;;;;;;;24.27;8.82;;;;;;;28.97;44.02;98530.47;5116845;27;20335;-69
2021/08/06 01:25:13;;;;;;;33.40;9.77;;;;;;;29.01;44.15;98528.75;5123910;27;20103;-69
2021/08/06 01:27:40;;;;;;;26.52;10.05;;;;;;;29.13;43.48;98530.88;5112875;27;20047;-69
2021/08/06 01:30:07;;;;;;;30.38;9.35;;;;;;;29.13;43.42;98523.53;5123170;27;20046;-68
2021/08/06 01:32:33;;;;;;;37.38;9.98;;;;;;;28.92;43.63;98517.78;5118627;27;20036;-68
2021/08/06 01:34:58;;;;;;;37.75;10.73;;;;;;;28.93;43.93;98513.94;5114109;27;20352;-68
2021/08/06 01:37:24;;;;;;;30.15;11.27;;;;;;;28.93;44.26;98524.03;5116001;28;20059;-68
2021/08/06 01:39:50;;;;;;;35.45;10.07;;;;;;;28.85;44.14;98519.34;5112485;28;20355;-68
2021/08/06 01:42:34;;;;;;;30.40;9.27;;;;;;;28.65;44.30;98520.63;5123872;27;20504;-69
2021/08/06 01:45:01;;;;;;;32.35;8.88;;;;;;;28.56;44.85;98525.22;5117958;27;20040;-68
2021/08/06 01:47:44;;;;;;;23.13;9.18;;;;;;;28.59;44.64;98530.03;5117346;27;20027;-68
2021/08/06 01:50:14;;;;;;;37.85;10.25;;;;;;;28.67;44.46;98528.50;5114263;27;20054;-68
2021/08/06 01:53:10;;;;;;;21.10;8.35;;;;;;;28.76;43.73;98524.72;5116674;27;20040;-69
2021/08/06 01:55:51;;;;;;;22.00;8.30;;;;;;;28.91;43.17;98524.34;5095950;28;20062;-70
2021/08/06 01:58:19;;;;;;;27.83;7.90;;;;;;;28.75;42.58;98523.09;5115799;27;20024;-69
2021/08/06 02:00:45;;;;;;;27.50;7.55;;;;;;;28.76;42.99;98515.72;5114456;27;20036;-69
2021/08/06 02:03:11;;;;;;;26.15;9.13;;;;;;;28.93;42.78;98507.69;5115814;27;20055;-69
2021/08/06 02:05:36;;;;;;;31.00;9.73;;;;;;;28.84;43.46;98513.09;5114133;27;20092;-69
2021/08/06 02:08:03;;;;;;;28.42;9.65;;;;;;;28.61;44.22;98509.56;5115156;27;20332;-68
2021/08/06 02:10:29;;;;;;;26.65;8.10;;;;;;;28.66;43.89;98524.97;5120242;27;20216;-68
2021/08/06 02:12:55;;;;;;;35.45;8.90;;;;;;;28.59;43.92;98519.94;5115619;27;20047;-68
2021/08/06 02:15:21;;;;;;;26.70;8.63;;;;;;;28.56;43.16;98522.50;5114404;27;20038;-68
2021/08/06 02:17:47;;;;;;;34.72;7.97;;;;;;;28.54;43.12;98522.81;5117797;27;20063;-69
2021/08/06 02:20:14;;;;;;;25.05;7.65;;;;;;;28.50;43.13;98515.56;5121423;27;20020;-68
2021/08/06 02:22:43;;;;;;;25.50;7.93;;;;;;;28.45;43.27;98516.47;5117914;27;20391;-68
2021/08/06 02:25:10;;;;;;;21.00;8.30;;;;;;;28.45;43.31;98527.38;5113640;27;20043;-69
2021/08/06 02:27:37;;;;;;;19.70;7.63;;;;;;;28.61;42.23;98525.91;5120927;27;20071;-68
2021/08/06 02:30:04;;;;;;;25.52;7.47;;;;;;;28.64;41.62;98521.75;5117408;27;20027;-69
2021/08/06 02:32:30;;;;;;;23.63;7.18;;;;;;;28.68;41.52;98511.03;5119067;27;20145;-69
2021/08/06 02:34:58;;;;;;;21.23;6.70;;;;;;;28.80;40.57;98522.97;5118780;27;20420;-69
2021/08/06 02:37:23;;;;;;;24.42;7.13;;;;;;;28.74;40.56;98517.97;5121566;27;20035;-69
2021/08/06 02:39:49;;;;;;;25.13;6.80;;;;;;;28.66;40.42;98516.00;5112302;27;20095;-69
2021/08/06 02:42:14;;;;;;;26.40;7.25;;;;;;;28.74;40.29;98517.97;5108375;27;20039;-69
2021/08/06 02:44:40;;;;;;;22.77;7.40;;;;;;;28.63;40.35;98516.59;5115794;27;20051;-69
2021/08/06 02:47:07;;;;;;;21.95;7.05;;;;;;;28.78;40.12;98517.03;5119973;27;20190;-69
2021/08/06 02:49:33;;;;;;;18.70;7.72;;;;;;;28.69;40.42;98512.66;5113949;27;20043;-68
2021/08/06 02:52:04;;;;;;;26.25;7.35;;;;;;;28.84;40.47;98517.75;5108757;27;20032;-68
2021/08/06 02:54:30;;;;;;;19.75;7.53;;;;;;;28.75;40.89;98525.03;5114130;28;20173;-68
2021/08/06 02:56:56;;;;;;;25.23;8.02;;;;;;;28.82;40.57;98539.00;5112549;27;20347;-68
2021/08/06 02:59:22;;;;;;;29.23;7.88;;;;;;;28.93;40.04;98540.41;5116112;27;20095;-68
2021/08/06 03:01:47;;;;;;;23.35;7.47;;;;;;;28.86;40.16;98540.03;5122612;27;20337;-69
2021/08/06 03:04:13;;;;;;;25.60;7.22;;;;;;;28.67;40.27;98544.84;5116068;27;20416;-69
2021/08/06 03:06:38;;;;;;;23.92;7.20;;;;;;;28.52;40.39;98537.84;5118754;27;20039;-69
2021/08/06 03:09:03;;;;;;;27.60;7.13;;;;;;;28.55;40.32;98537.22;5116718;27;20355;-69
2021/08/06 03:11:29;;;;;;;25.33;7.53;;;;;;;28.64;39.59;98538.09;5122580;27;20028;-69
2021/08/06 03:13:54;;;;;;;26.60;7.82;;;;;;;28.69;39.26;98542.59;5113532;27;20035;-69
2021/08/06 03:16:20;;;;;;;27.02;7.38;;;;;;;28.46;39.65;98545.31;5106565;28;20036;-69
2021/08/06 03:18:46;;;;;;;25.70;7.55;;;;;;;28.64;39.05;98543.53;5117699;27;20035;-69
2021/08/06 03:21:11;;;;;;;19.42;6.72;;;;;;;28.54;38.91;98544.59;5117959;27;20045;-69
2021/08/06 03:23:37;;;;;;;26.77;6.88;;;;;;;28.58;38.55;98534.69;5115127;28;20032;-68
2021/08/06 03:26:02;;;;;;;19.15;7.35;;;;;;;28.47;38.14;98533.31;5113904;27;20212;-68
2021/08/06 03:28:28;;;;;;;27.08;6.93;;;;;;;28.75;37.33;98539.44;5114483;27;20040;-68
2021/08/06 03:30:54;;;;;;;25.63;6.97;;;;;;;28.76;37.40;98542.97;5119108;27;20031;-68
2021/08/06 03:33:19;;;;;;;26.83;7.05;;;;;;;28.72;37.89;98536.53;5120225;27;20031;-68
2021/08/06 03:35:45;;;;;;;21.88;7.00;;;;;;;28.75;37.49;98534.00;5109163;27;20050;-69
2021/08/06 03:38:16;;;;;;;21.50;6.28;;;;;;;28.85;37.34;98528.31;5104761;28;20031;-68
2021/08/06 03:40:41;;;;;;;24.60;6.68;;;;;;;28.99;37.43;98527.44;5110719;28;20091;-69
2021/08/06 03:43:08;;;;;;;26.25;6.75;;;;;;;29.06;38.29;98531.34;5112030;27;20036;-69
2021/08/06 03:45:33;;;;;;;26.20;8.15;;;;;;;28.91;37.33;98516.19;5108578;28;20032;-69
2021/08/06 03:47:59;;;;;;;24.40;6.75;;;;;;;28.87;38.77;98531.53;5105399;28;20035;-69
2021/08/06 03:50:24;;;;;;;23.63;7.18;;;;;;;28.77;39.74;98523.59;5109405;28;20336;-70
2021/08/06 03:52:50;;;;;;;21.40;6.93;;;;;;;28.78;39.47;98524.41;5112968;28;20397;-69
2021/08/06 03:55:15;;;;;;;25.67;7.68;;;;;;;28.85;39.14;98520.16;5119624;28;20039;-69
2021/08/06 03:57:51;;;;;;;33.63;10.25;;;;;;;28.93;38.60;98518.59;5116240;28;20345;-69
2021/08/06 04:00:18;;;;;;;31.48;8.18;;;;;;;28.90;38.45;98514.56;5108304;28;20035;-68
2021/08/06 04:02:44;;;;;;;28.70;7.55;;;;;;;28.63;39.25;98516.59;5112507;28;20024;-69
2021/08/06 04:05:10;;;;;;;22.27;7.60;;;;;;;28.65;38.48;98517.91;5114674;28;20072;-69
2021/08/06 04:07:41;;;;;;;25.30;7.70;;;;;;;28.82;38.09;98520.75;5103875;28;20121;-68
2021/08/06 04:10:07;;;;;;;28.38;7.53;;;;;;;28.80;38.40;98519.44;5120908;28;20051;-68
2021/08/06 04:12:33;;;;;;;24.35;7.35;;;;;;;28.87;38.70;98517.13;5112756;27;20035;-69
2021/08/06 04:14:58;;;;;;;24.02;7.40;;;;;;;28.83;39.22;98518.81;5120756;27;20210;-69
2021/08/06 04:17:24;;;;;;;26.08;7.90;;;;;;;28.68;39.46;98500.13;5119488;27;20040;-68
2021/08/06 04:19:49;;;;;;;22.65;8.05;;;;;;;28.69;39.49;98512.66;5119819;27;20028;-69
2021/08/06 04:22:14;;;;;;;34.28;7.60;;;;;;;28.76;39.69;98523.91;5117890;27;20032;-69
2021/08/06 04:24:40;;;;;;;31.15;8.50;;;;;;;28.81;39.31;98521.84;5115763;27;20331;-70
2021/08/06 04:27:05;;;;;;;27.17;7.65;;;;;;;28.84;39.83;98525.91;5118383;27;20028;-70
2021/08/06 04:29:30;;;;;;;34.13;8.13;;;;;;;28.76;39.89;98523.91;5122213;27;20034;-69
2021/08/06 04:31:56;;;;;;;31.30;9.50;;;;;;;28.80;40.13;98533.88;5115564;27;20046;-69
2021/08/06 04:34:21;;;;;;;33.67;8.73;;;;;;;28.84;39.90;98534.09;5118448;27;20128;-69
2021/08/06 04:36:48;;;;;;;36.42;9.20;;;;;;;28.70;40.25;98530.59;5125159;27;20224;-70
2021/08/06 04:39:13;;;;;;;28.23;8.35;;;;;;;29.03;39.54;98528.44;5119973;27;20015;-68
2021/08/06 04:41:39;;;;;;;32.10;9.27;;;;;;;29.12;39.49;98532.00;5113671;27;20035;-69
2021/08/06 04:44:04;;;;;;;40.78;8.90;;;;;;;29.22;39.65;98531.75;5121413;27;20039;-68
2021/08/06 04:46:30;;;;;;;30.55;9.15;;;;;;;29.40;38.86;98538.09;5118513;27;20036;-68
2021/08/06 04:48:55;;;;;;;32.30;9.40;;;;;;;29.38;39.24;98540.34;5116001;27;20332;-68
2021/08/06 04:51:20;;;;;;;28.83;8.60;;;;;;;29.70;38.90;98541.91;5113355;27;20028;-68
2021/08/06 04:53:46;;;;;;;29.60;9.25;;;;;;;29.95;37.80;98540.38;5115420;27;20036;-68
2021/08/06 04:56:11;;;;;;;35.30;9.23;;;;;;;30.34;37.09;98547.69;5114658;27;20043;-68
2021/08/06 04:58:37;;;;;;;30.70;9.48;;;;;;;30.38;36.83;98546.75;5121246;27;20032;-69
2021/08/06 05:01:02;;;;;;;28.38;9.18;;;;;;;30.64;36.82;98543.22;5121328;27;20073;-68
2021/08/06 05:03:28;;;;;;;31.98;9.18;;;;;;;31.00;36.28;98545.56;5118094;27;20035;-69
2021/08/06 05:05:53;;;;;;;27.73;8.95;;;;;;;31.36;35.62;98548.75;5118703;27;20228;-69
2021/08/06 05:08:18;;;;;;;29.58;8.70;;;;;;;31.57;34.42;98546.06;5119374;27;20040;-69
2021/08/06 05:10:44;;;;;;;29.83;8.02;;;;;;;31.87;34.48;98557.06;5123586;27;20027;-69
2021/08/06 05:13:09;;;;;;;26.42;8.27;;;;;;;32.05;33.52;98558.56;5112794;27;20028;-69
2021/08/06 05:15:35;;;;;;;33.70;8.95;;;;;;;32.33;33.35;98553.44;5121370;27;20190;-69
2021/08/06 05:18:00;;;;;;;38.65;9.82;;;;;;;32.73;32.68;98556.47;5118935;27;20340;-69
2021/08/06 05:20:26;;;;;;;27.83;8.07;;;;;;;33.11;30.62;98559.00;5119449;27;20072;-70
2021/08/06 05:22:51;;;;;;;24.67;8.07;;;;;;;33.19;30.46;98557.31;5115524;27;20100;-69
2021/08/06 05:25:16;;;;;;;31.25;8.77;;;;;;;33.42;30.03;98565.97;5112351;27;20068;-70
2021/08/06 05:27:43;;;;;;;25.45;7.97;;;;;;;33.34;30.22;98564.94;5116513;27;20076;-70
2021/08/06 05:30:11;;;;;;;31.00;7.50;;;;;;;33.24;29.56;98573.56;5117242;27;20027;-69
2021/08/06 05:32:36;;;;;;;26.73;7.65;;;;;;;33.10;29.49;98565.63;5118548;27;20046;-69
2021/08/06 05:35:01;;;;;;;27.73;8.07;;;;;;;33.15;29.80;98573.66;5119325;27;20039;-69
2021/08/06 05:37:27;;;;;;;25.73;8.05;;;;;;;33.17;29.31;98571.38;5116778;27;20544;-70
2021/08/06 05:39:52;;;;;;;28.02;8.18;;;;;;;32.90;29.23;98570.03;5113948;27;20046;-69
2021/08/06 05:42:19;;;;;;;19.02;6.90;;;;;;;32.82;29.59;98570.13;5116063;27;20745;-69
2021/08/06 05:44:45;;;;;;;28.23;8.25;;;;;;;32.57;30.00;98575.47;5116489;27;20028;-69
2021/08/06 05:47:10;;;;;;;21.60;7.57;;;;;;;32.58;30.23;98584.50;5116057;27;20043;-70
2021/08/06 05:49:36;;;;;;;24.35;7.43;;;;;;;32.45;30.37;98572.66;5123552;27;20027;-69
2021/08/06 05:52:01;;;;;;;22.60;7.28;;;;;;;32.48;30.53;98577.47;5115195;27;20031;-69
2021/08/06 05:54:27;;;;;;;31.00;7.72;;;;;;;32.56;29.68;98584.81;5113912;27;20329;-69
2021/08/06 05:56:52;;;;;;;32.92;8.02;;;;;;;32.58;30.35;98582.56;5113627;27;20032;-69
2021/08/06 05:59:18;;;;;;;34.88;7.22;;;;;;;32.56;30.38;98584.03;5113843;27;20027;-69
2021/08/06 06:01:43;;;;;;;22.02;7.22;;;;;;;32.65;30.36;98585.56;5117450;27;20043;-69
2021/08/06 06:04:10;;;;;;;23.13;7.45;;;;;;;32.76;30.66;98590.63;5111239;27;20248;-68
2021/08/06 06:06:35;;;;;;;25.80;7.57;;;;;;;32.81;30.75;98582.22;5118144;27;20039;-69
2021/08/06 06:09:01;;;;;;;30.58;7.43;;;;;;;33.22;30.37;98592.28;5118573;27;20233;-69
2021/08/06 06:11:26;;;;;;;19.92;7.28;;;;;;;33.68;28.76;98580.19;5100215;27;20030;-69
2021/08/06 06:13:51;;;;;;;23.13;7.28;;;;;;;33.81;28.86;98587.31;5120671;27;20068;-69
2021/08/06 06:16:17;;;;;;;21.67;7.43;;;;;;;34.04;28.57;98584.09;5117801;27;20035;-69
2021/08/06 06:18:42;;;;;;;21.13;7.50;;;;;;;34.32;28.57;98584.16;5117130;27;20054;-69
2021/08/06 06:21:10;;;;;;;28.27;7.82;;;;;;;34.60;28.22;98574.06;5117617;28;20024;-70
2021/08/06 06:23:35;;;;;;;33.80;7.60;;;;;;;34.65;28.23;98582.06;5118059;27;20291;-69
2021/08/06 06:26:01;;;;;;;30.40;6.32;;;;;;;34.58;28.60;98577.16;5115955;27;20023;-69
2021/08/06 06:28:26;;;;;;;24.63;7.45;;;;;;;34.51;28.10;98581.66;5118460;27;20250;-69
2021/08/06 06:30:52;;;;;;;36.42;12.10;;;;;;;34.08;28.77;98588.56;5117420;27;20036;-69
2021/08/06 06:33:17;;;;;;;38.15;13.05;;;;;;;33.54;29.92;98582.47;5119754;27;20053;-68
2021/08/06 06:35:43;;;;;;;210.30;117.28;;;;;;;33.29;30.43;98587.06;5116328;27;20031;-69
2021/08/06 06:38:08;;;;;;;101.32;51.13;;;;;;;33.26;30.22;98596.75;5115358;27;20047;-69
2021/08/06 06:40:34;;;;;;;117.47;66.60;;;;;;;33.24;30.47;98587.28;5116746;27;20024;-68
2021/08/06 06:42:59;;;;;;;54.53;26.27;;;;;;;33.22;30.92;98601.31;5117003;27;20061;-69
2021/08/06 06:45:25;;;;;;;42.15;13.57;;;;;;;33.49;30.66;98588.19;5116702;27;20050;-68
2021/08/06 06:47:52;;;;;;;25.73;8.25;;;;;;;33.48;30.79;98595.59;5114412;27;20019;-69
2021/08/06 06:50:20;;;;;;;34.15;12.55;;;;;;;33.41;30.71;98598.13;5120619;27;20059;-69
2021/08/06 06:52:47;;;;;;;42.30;15.45;;;;;;;33.22;30.94;98603.28;5117452;27;20111;-69
2021/08/06 06:55:13;;;;;;;47.13;16.73;;;;;;;32.98;31.30;98609.47;5115841;27;20027;-69
2021/08/06 06:57:49;;;;;;;46.60;10.73;;;;;;;33.17;31.67;98607.03;5117379;27;20113;-70
2021/08/06 07:00:15;;;;;;;29.63;10.18;;;;;;;33.46;31.29;98603.38;5117346;27;20031;-70
2021/08/06 07:02:41;;;;;;;40.67;11.25;;;;;;;33.49;31.94;98604.63;5119393;27;20035;-70
2021/08/06 07:05:08;;;;;;;50.88;21.55;;;;;;;33.86;31.30;98614.53;5114878;27;20068;-69
2021/08/06 07:07:33;;;;;;;46.25;12.30;;;;;;;34.17;30.68;98605.72;5116422;27;20332;-69
2021/08/06 07:09:58;;;;;;;33.63;11.75;;;;;;;34.21;30.47;98606.63;5119187;27;20033;-69
2021/08/06 07:12:24;;;;;;;31.58;9.75;;;;;;;34.80;29.96;98611.56;5116282;27;20351;-69
2021/08/06 07:14:49;;;;;;;40.78;18.13;;;;;;;35.09;28.86;98601.38;5116665;27;20094;-69
2021/08/06 07:17:15;;;;;;;37.15;12.00;;;;;;;34.49;29.55;98603.97;5114814;28;20051;-69
2021/08/06 07:19:40;;;;;;;40.05;10.38;;;;;;;34.05;30.65;98608.47;5116329;27;20042;-69
2021/08/06 07:22:06;;;;;;;33.33;11.57;;;;;;;34.13;30.59;98604.00;5115029;28;20048;-68
2021/08/06 07:24:31;;;;;;;31.88;10.27;;;;;;;33.80;30.88;98601.34;5118663;27;20277;-69
2021/08/06 07:26:57;;;;;;;26.25;8.77;;;;;;;33.50;31.56;98603.50;5114327;27;20040;-69
2021/08/06 07:29:22;;;;;;;22.73;10.57;;;;;;;33.25;32.47;98605.34;5118703;27;20099;-69
2021/08/06 07:31:48;;;;;;;45.08;18.77;;;;;;;33.00;32.96;98598.97;5118154;27;20043;-69
2021/08/06 07:34:14;;;;;;;37.80;11.13;;;;;;;33.11;33.93;98600.16;5117329;27;20321;-69
2021/08/06 07:36:39;;;;;;;40.28;12.38;;;;;;;33.00;35.16;98601.72;5116976;28;20040;-69
2021/08/06 07:39:05;;;;;;;34.55;11.38;;;;;;;32.85;35.71;98603.16;5118130;27;20043;-69
2021/08/06 07:41:30;;;;;;;34.08;11.63;;;;;;;32.75;35.42;98614.50;5116485;27;20050;-69
2021/08/06 07:43:56;;;;;;;35.22;11.32;;;;;;;32.71;35.41;98602.59;5117858;27;20035;-69
2021/08/06 07:46:21;;;;;;;26.65;10.98;;;;;;;32.72;35.60;98606.94;5117234;27;20762;-69
2021/08/06 07:48:47;;;;;;;27.67;10.18;;;;;;;32.64;34.59;98599.59;5116705;28;20030;-73
2021/08/06 07:51:12;;;;;;;42.03;11.13;;;;;;;32.89;34.43;98606.81;5267158;22;20060;-73
2021/08/06 07:53:38;;;;;;;29.23;10.45;;;;;;;33.09;33.57;98594.19;5044832;28;20046;-73
2021/08/06 07:56:04;;;;;;;28.83;9.95;;;;;;;33.29;33.25;98606.25;5046280;28;20041;-73
2021/08/06 07:58:29;;;;;;;35.85;9.80;;;;;;;33.25;32.42;98606.13;5043961;28;20499;-74
2021/08/06 08:00:54;;;;;;;33.25;8.48;;;;;;;33.15;32.33;98605.75;5044075;28;20029;-74
2021/08/06 08:03:20;;;;;;;24.75;8.52;;;;;;;32.85;32.61;98607.81;5043753;28;20717;-74
2021/08/06 08:05:45;;;;;;;20.55;8.15;;;;;;;33.03;32.58;98603.78;5045410;28;20030;-74
2021/08/06 08:08:11;;;;;;;24.30;8.57;;;;;;;33.26;31.82;98613.22;5029340;28;20021;-75
2021/08/06 08:10:37;;;;;;;22.65;7.97;;;;;;;33.97;30.57;98606.63;5043948;28;20049;-74
2021/08/06 08:13:03;;;;;;;21.60;6.53;;;;;;;33.75;29.90;98616.09;5043407;28;20028;-73
2021/08/06 08:15:29;;;;;;;21.70;6.45;;;;;;;33.95;29.35;98608.94;5044842;28;20334;-73
2021/08/06 08:17:54;;;;;;;20.05;6.88;;;;;;;33.90;29.83;98604.47;5046696;28;20342;-73
2021/08/06 08:20:20;;;;;;;13.75;5.25;;;;;;;33.55;29.58;98617.81;5044927;28;20089;-73
2021/08/06 08:22:46;;;;;;;13.95;5.18;;;;;;;33.46;29.74;98619.03;5044549;28;20049;-73
2021/08/06 08:25:11;;;;;;;19.88;5.60;;;;;;;33.57;29.41;98615.50;5047456;28;20313;-73
2021/08/06 08:27:38;;;;;;;14.77;5.70;;;;;;;33.61;28.52;98608.19;5043231;28;20049;-73
2021/08/06 08:30:07;;;;;;;19.85;6.85;;;;;;;33.87;28.78;98616.13;5046111;28;20088;-73
2021/08/06 08:32:33;;;;;;;18.23;6.80;;;;;;;34.25;28.14;98613.03;5045015;28;20452;-73
2021/08/06 08:34:58;;;;;;;18.73;5.72;;;;;;;34.40;28.10;98619.00;5032907;28;20021;-74
2021/08/06 08:37:24;;;;;;;13.63;5.85;;;;;;;34.22;27.33;98619.22;5029431;28;20352;-74
2021/08/06 08:39:50;;;;;;;22.30;5.80;;;;;;;34.34;27.82;98621.19;5044882;28;20096;-74
2021/08/06 08:42:17;;;;;;;20.33;5.38;;;;;;;34.36;27.43;98616.16;5047209;28;20053;-74
2021/08/06 08:44:43;;;;;;;16.08;4.82;;;;;;;34.27;29.31;98620.91;5044527;28;20025;-74
2021/08/06 08:47:08;;;;;;;18.45;5.53;;;;;;;33.79;30.40;98608.78;5028035;28;20033;-74
2021/08/06 08:49:36;;;;;;;23.02;5.90;;;;;;;33.87;30.34;98610.66;5043175;28;20032;-73
2021/08/06 08:52:02;;;;;;;19.05;5.57;;;;;;;33.57;30.87;98612.78;5046282;28;20032;-73
2021/08/06 08:54:28;;;;;;;28.25;6.13;;;;;;;33.48;30.47;98606.59;5028120;28;20029;-73
2021/08/06 08:56:54;;;;;;;24.08;5.53;;;;;;;33.29;30.86;98614.50;5041434;28;20041;-73
2021/08/06 08:59:20;;;;;;;24.25;5.28;;;;;;;33.37;30.82;98613.66;5045944;28;20057;-73
2021/08/06 09:01:45;;;;;;;16.40;4.78;;;;;;;34.04;29.84;98606.88;5048703;28;20036;-73
2021/08/06 09:04:28;;;;;;;16.80;4.93;;;;;;;34.30;29.15;98606.47;5047428;28;20228;-73
2021/08/06 09:06:55;;;;;;;27.93;5.87;;;;;;;33.77;29.97;98613.81;5048593;28;20034;-73
2021/08/06 09:09:23;;;;;;;22.48;5.22;;;;;;;33.65;29.66;98619.28;5046800;28;20040;-74
2021/08/06 09:12:06;;;;;;;13.60;4.68;;;;;;;33.55;29.75;98628.78;5048401;28;20056;-74
2021/08/06 09:14:34;;;;;;;28.00;5.15;;;;;;;33.07;29.15;98623.91;5048766;28;20039;-74
2021/08/06 09:17:05;;;;;;;26.58;4.65;;;;;;;32.55;31.29;98631.75;5045703;28;20698;-74
2021/08/06 09:19:34;;;;;;;18.00;4.47;;;;;;;32.33;31.32;98632.88;5049998;28;20036;-74
2021/08/06 09:22:20;;;;;;;14.18;4.75;;;;;;;32.12;31.68;98630.03;5048931;28;20254;-74
2021/08/06 09:25:07;;;;;;;18.45;4.68;;;;;;;32.11;33.04;98628.44;5047304;28;20039;-73
2021/08/06 09:27:35;;;;;;;13.57;4.05;;;;;;;32.19;31.72;98616.63;5046098;28;20041;-73
2021/08/06 09:30:05;;;;;;;18.58;5.18;;;;;;;32.42;31.99;98624.59;5046041;28;20032;-73
2021/08/06 09:33:00;;;;;;;12.68;4.63;;;;;;;32.42;31.86;98624.59;5046383;28;20084;-73
2021/08/06 09:35:28;;;;;;;22.67;5.15;;;;;;;32.67;32.05;98621.66;5032829;28;20037;-73
2021/08/06 09:37:55;;;;;;;16.45;4.75;;;;;;;32.87;31.78;98622.00;5049248;28;20345;-73
2021/08/06 09:40:29;;;;;;;13.82;4.65;;;;;;;33.15;31.35;98628.50;5046801;28;20056;-73
2021/08/06 09:42:59;;;;;;;27.92;5.75;;;;;;;33.19;30.82;98618.47;5049271;28;20036;-74
2021/08/06 09:45:37;;;;;;;19.55;5.07;;;;;;;33.09;30.98;98609.84;5047534;28;20059;-74
2021/08/06 09:48:04;;;;;;;25.13;5.50;;;;;;;33.29;31.14;98600.78;5046420;28;20075;-74
2021/08/06 09:50:35;;;;;;;22.48;5.75;;;;;;;33.37;31.35;98601.88;5047087;28;20043;-74
2021/08/06 09:53:01;;;;;;;24.35;4.95;;;;;;;33.45;30.90;98590.00;5046580;28;20094;-74
2021/08/06 09:55:32;;;;;;;16.70;5.28;;;;;;;33.31;30.54;98588.38;5046761;28;20071;-74
2021/08/06 09:58:01;;;;;;;20.42;5.35;;;;;;;33.55;31.45;98584.06;5030908;28;20025;-74
2021/08/06 10:00:27;;;;;;;30.35;5.82;;;;;;;33.61;32.25;98580.75;5048489;28;20056;-73
2021/08/06 10:02:57;;;;;;;53.22;10.85;;;;;;;33.50;31.83;98571.38;5046348;28;20026;-73
2021/08/06 10:05:25;;;;;;;21.45;5.97;;;;;;;33.34;32.64;98570.44;5048319;28;20112;-73
2021/08/06 10:07:54;;;;;;;11.98;4.95;;;;;;;33.29;32.69;98570.59;5046390;28;20037;-73
2021/08/06 10:10:25;;;;;;;16.55;5.10;;;;;;;33.31;32.23;98562.88;5045515;28;20029;-73
2021/08/06 10:12:52;;;;;;;17.08;4.47;;;;;;;32.93;32.12;98554.84;5044027;28;20334;-73
2021/08/06 10:15:19;;;;;;;13.07;4.60;;;;;;;33.02;32.22;98569.28;5048490;28;20036;-73
2021/08/06 10:17:45;;;;;;;18.25;4.57;;;;;;;33.27;30.85;98561.91;5045862;28;20250;-73
2021/08/06 10:20:13;;;;;;;13.95;4.47;;;;;;;33.55;30.88;98568.41;5029752;28;20017;-74
2021/08/06 10:22:39;;;;;;;12.00;4.05;;;;;;;33.83;29.82;98570.50;5038503;28;20049;-74
2021/08/06 10:25:08;;;;;;;13.48;4.95;;;;;;;34.03;30.18;98566.00;5033040;28;20033;-74
2021/08/06 10:27:35;;;;;;;19.58;5.15;;;;;;;33.98;30.31;98560.75;5046497;28;20318;-75
2021/08/06 10:30:09;;;;;;;18.75;5.78;;;;;;;33.76;30.68;98535.34;5046549;28;20029;-74
2021/08/06 10:32:37;;;;;;;15.07;4.50;;;;;;;33.98;31.30;98561.56;5047454;28;20278;-74
2021/08/06 10:35:03;;;;;;;15.00;5.07;;;;;;;33.88;37.25;98559.28;5046013;28;20028;-73
2021/08/06 10:38:01;;;;;;;20.33;4.75;;;;;;;33.86;36.39;98565.09;5048448;28;20119;-73
2021/08/06 10:40:33;;;;;;;14.60;4.35;;;;;;;33.55;34.54;98571.16;5050516;28;20103;-73
2021/08/06 10:43:10;;;;;;;12.65;4.63;;;;;;;33.38;34.74;98565.06;5045204;28;20043;-73
2021/08/06 10:45:45;;;;;;;11.38;4.70;;;;;;;33.16;33.84;98564.28;5046596;28;20075;-73
2021/08/06 10:48:33;;;;;;;13.55;4.40;;;;;;;33.03;34.82;98581.84;5049329;28;20029;-73
2021/08/06 10:51:20;;;;;;;14.70;4.57;;;;;;;32.93;33.71;98565.81;5045605;28;20044;-74
2021/08/06 10:53:54;;;;;;;14.13;4.47;;;;;;;32.93;33.48;98554.84;5046884;28;20029;-75
2021/08/06 10:56:21;;;;;;;8.13;4.22;;;;;;;32.68;34.08;98553.94;5045286;28;20234;-74
2021/08/06 10:58:52;;;;;;;5.25;4.20;;;;;;;32.69;34.29;98552.78;5046650;28;20025;-74
2021/08/06 11:01:34;;;;;;;15.73;4.40;;;;;;;32.68;35.11;98554.72;5044982;28;20048;-74
2021/08/06 11:04:19;;;;;;;14.18;5.00;;;;;;;32.60;35.79;98560.28;5047568;28;20037;-74
2021/08/06 11:06:52;;;;;;;19.73;4.88;;;;;;;32.30;36.40;98570.53;5047205;28;20323;-74
2021/08/06 11:09:24;;;;;;;;;;;;;;;32.68;34.73;98560.22;5048947;28;20037;-74
2021/08/06 11:11:52;;;;;;;10.80;4.25;;;;;;;32.67;35.21;98558.63;5045503;28;19944;-74
2021/08/06 11:14:18;;;;;;;13.18;4.20;;;;;;;32.68;34.22;98554.72;5045600;28;20025;-74
2021/08/06 11:16:57;;;;;;;10.10;4.70;;;;;;;32.68;32.90;98559.41;5046615;28;20274;-73
2021/08/06 11:19:28;;;;;;;12.85;4.68;;;;;;;32.75;33.81;98564.34;5045918;28;20096;-73
2021/08/06 11:21:54;;;;;;;13.23;4.57;;;;;;;32.92;33.80;98558.72;5044061;28;20260;-73
2021/08/06 11:24:19;;;;;;;14.40;4.03;;;;;;;32.93;33.75;98549.38;5045631;28;20036;-73
2021/08/06 11:26:49;;;;;;;11.40;4.72;;;;;;;33.12;33.25;98557.88;5048695;28;20254;-73